Time;durP1;ratioP1;P1;durP2;ratioP2;P2;SDS_P1;SDS_P2;PMS_P1;PMS_P2;Temp;Humidity;BMP_temperature;BMP_pressure;BME280_temperature;BME280_humidity;BME280_pressure;Samples;Min_cycle;Max_cycle;Signal;HPM_P1;HPM_P2
2023/04/08 00:00:21;;;;;;;12.32;5.13;;;5.70;53.50;;;;;;5007279;28;20054;-89
2023/04/08 00:02:47;;;;;;;8.07;5.47;;;5.70;53.90;;;;;;4991639;28;20026;-89
2023/04/08 00:05:12;;;;;;;13.60;6.00;;;5.70;54.60;;;;;;5005948;28;20491;-90
2023/04/08 00:07:38;;;;;;;8.55;5.65;;;5.60;54.00;;;;;;5006692;28;20559;-89
2023/04/08 00:10:05;;;;;;;12.77;6.07;;;5.70;54.80;;;;;;5007861;28;20044;-89
2023/04/08 00:12:32;;;;;;;13.00;5.80;;;5.70;54.30;;;;;;5016681;28;20026;-88
2023/04/08 00:14:58;;;;;;;14.52;6.10;;;5.60;54.20;;;;;;5022998;28;20081;-88
2023/04/08 00:17:24;;;;;;;16.15;5.95;;;5.60;54.40;;;;;;5011912;28;20126;-89
2023/04/08 00:19:50;;;;;;;16.17;5.30;;;5.50;54.60;;;;;;5000990;28;20113;-89
2023/04/08 00:22:16;;;;;;;11.45;5.60;;;5.50;54.60;;;;;;5005416;28;20394;-90
2023/04/08 00:24:42;;;;;;;13.93;6.50;;;5.50;54.80;;;;;;5036863;28;20104;-90
2023/04/08 00:27:08;;;;;;;15.32;5.97;;;5.50;54.80;;;;;;5004535;28;20034;-88
2023/04/08 00:29:35;;;;;;;10.60;6.25;;;5.50;55.00;;;;;;5008387;28;20557;-89
2023/04/08 00:32:01;;;;;;;9.85;5.28;;;5.50;55.10;;;;;;5013603;28;20038;-88
2023/04/08 00:34:27;;;;;;;11.00;6.17;;;5.40;55.10;;;;;;5027776;28;20153;-88
2023/04/08 00:36:53;;;;;;;11.75;6.40;;;5.40;55.10;;;;;;5011826;28;20030;-88
2023/04/08 00:39:19;;;;;;;10.30;5.22;;;5.40;55.50;;;;;;5023826;28;20014;-88
2023/04/08 00:41:45;;;;;;;10.50;5.95;;;5.30;55.60;;;;;;5021141;28;20077;-90
2023/04/08 00:44:12;;;;;;;12.75;5.43;;;5.30;55.90;;;;;;5009535;28;20022;-90
2023/04/08 00:46:39;;;;;;;12.48;6.28;;;5.30;56.10;;;;;;5052043;28;20064;-88
2023/04/08 00:49:06;;;;;;;9.00;6.72;;;5.20;56.10;;;;;;5040585;28;20002;-84
2023/04/08 00:51:35;;;;;;;16.48;6.68;;;5.20;56.20;;;;;;5040376;28;20057;-79
2023/04/08 00:54:03;;;;;;;12.48;6.20;;;5.20;56.30;;;;;;5037173;28;20028;-88
2023/04/08 00:56:31;;;;;;;10.38;6.22;;;5.20;56.60;;;;;;5022254;28;20030;-90
2023/04/08 00:59:02;;;;;;;10.30;5.47;;;5.20;56.80;;;;;;5022054;28;20021;-91
2023/04/08 01:01:46;;;;;;;11.15;6.45;;;5.20;56.90;;;;;;5039958;28;20054;-90
2023/04/08 01:04:11;;;;;;;12.05;6.07;;;5.20;56.90;;;;;;5031645;28;20057;-89
2023/04/08 01:06:46;;;;;;;16.95;7.22;;;5.20;56.90;;;;;;5024315;28;20022;-89
2023/04/08 01:09:15;;;;;;;14.38;6.85;;;5.20;57.10;;;;;;5029563;28;20014;-89
2023/04/08 01:11:44;;;;;;;16.08;6.40;;;5.10;57.10;;;;;;5027242;28;20034;-86
2023/04/08 01:14:15;;;;;;;14.07;6.07;;;5.10;57.10;;;;;;5020471;28;20033;-87
2023/04/08 01:16:42;;;;;;;22.17;6.40;;;5.20;57.20;;;;;;5020587;28;20028;-87
2023/04/08 01:19:12;;;;;;;;;;;5.10;57.50;;;;;;5015088;28;20045;-87
2023/04/08 01:21:39;;;;;;;11.93;6.20;;;5.10;57.20;;;;;;5029400;28;20278;-87
2023/04/08 01:24:17;;;;;;;11.15;6.22;;;5.00;57.40;;;;;;5033162;28;20026;-91
2023/04/08 01:26:44;;;;;;;10.50;5.80;;;5.00;57.80;;;;;;4995991;28;20031;-91
2023/04/08 01:29:11;;;;;;;14.38;6.70;;;5.00;58.00;;;;;;5010944;28;20170;-90
2023/04/08 01:31:40;;;;;;;;;;;4.90;58.10;;;;;;4999257;28;20456;-93
2023/04/08 01:34:10;;;;;;;15.23;6.60;;;4.90;57.80;;;;;;5000179;28;19968;-93
2023/04/08 01:36:40;;;;;;;10.00;5.07;;;4.90;58.50;;;;;;4980034;28;20035;-92
2023/04/08 01:39:06;;;;;;;12.98;6.30;;;4.90;58.60;;;;;;4985173;28;20038;-90
2023/04/08 01:41:34;;;;;;;9.83;5.60;;;4.90;58.60;;;;;;4978199;28;20055;-89
2023/04/08 01:44:01;;;;;;;10.15;5.38;;;4.90;58.70;;;;;;5002874;28;20058;-91
2023/04/08 01:46:30;;;;;;;9.60;5.40;;;4.90;58.60;;;;;;5008719;28;20029;-91
2023/04/08 01:48:57;;;;;;;12.05;6.45;;;4.90;58.90;;;;;;4994948;28;20042;-92
2023/04/08 01:51:23;;;;;;;;;;;4.80;58.90;;;;;;4983511;28;20039;-90
2023/04/08 01:53:50;;;;;;;10.55;6.38;;;4.80;58.70;;;;;;5002505;28;19905;-92
2023/04/08 01:56:16;;;;;;;9.85;5.13;;;4.80;59.10;;;;;;5001741;28;20099;-91
2023/04/08 01:58:48;;;;;;;11.98;5.57;;;4.70;59.10;;;;;;5016536;28;20113;-90
2023/04/08 02:01:19;;;;;;;13.15;6.88;;;4.70;59.40;;;;;;4974954;28;20576;-90
2023/04/08 02:03:46;;;;;;;13.10;6.00;;;4.70;59.50;;;;;;5011557;28;20041;-91
2023/04/08 02:06:14;;;;;;;10.18;6.47;;;4.70;59.60;;;;;;4979086;28;20038;-93
2023/04/08 02:08:39;;;;;;;13.00;7.25;;;4.60;59.60;;;;;;4991324;28;20029;-89
2023/04/08 02:11:05;;;;;;;12.88;6.85;;;4.60;59.80;;;;;;5009471;28;20033;-92
2023/04/08 02:13:32;;;;;;;13.98;7.35;;;4.60;60.00;;;;;;5034025;28;20036;-89
2023/04/08 02:16:26;;;;;;;10.07;6.28;;;4.60;60.00;;;;;;5036152;28;20097;-90
2023/04/08 02:19:07;;;;;;;13.00;7.35;;;4.60;60.10;;;;;;5035713;28;20085;-89
2023/04/08 02:21:43;;;;;;;10.77;7.03;;;4.50;60.30;;;;;;5022231;28;20025;-93
2023/04/08 02:24:12;;;;;;;9.18;6.88;;;4.50;60.40;;;;;;4994953;28;20049;-90
2023/04/08 02:26:39;;;;;;;14.77;7.47;;;4.40;60.60;;;;;;4972093;28;20522;-88
2023/04/08 02:29:06;;;;;;;11.45;6.05;;;4.40;60.70;;;;;;4991782;28;20026;-86
2023/04/08 02:31:33;;;;;;;13.95;7.53;;;4.40;60.70;;;;;;5019704;28;20033;-88
2023/04/08 02:33:59;;;;;;;17.88;7.68;;;4.30;60.80;;;;;;4999893;28;20037;-88
2023/04/08 02:36:26;;;;;;;10.53;5.97;;;4.30;61.00;;;;;;4989191;28;20053;-88
2023/04/08 02:38:52;;;;;;;12.25;6.65;;;4.30;61.20;;;;;;5031720;28;20267;-87
2023/04/08 02:41:17;;;;;;;13.88;7.45;;;4.30;61.40;;;;;;5027001;28;20114;-88
2023/04/08 02:43:43;;;;;;;9.48;6.72;;;4.20;61.40;;;;;;5031150;28;20033;-88
2023/04/08 02:46:11;;;;;;;16.52;6.07;;;4.20;61.50;;;;;;5013044;28;20030;-88
2023/04/08 02:48:36;;;;;;;10.18;7.15;;;4.20;61.70;;;;;;5004282;28;20129;-88
2023/04/08 02:51:02;;;;;;;14.00;6.25;;;4.20;61.70;;;;;;5011809;28;20121;-87
2023/04/08 02:53:30;;;;;;;11.20;6.65;;;4.10;61.80;;;;;;5034304;28;20029;-87
2023/04/08 02:55:56;;;;;;;12.15;6.78;;;4.10;62.00;;;;;;5006428;28;20034;-89
2023/04/08 02:58:22;;;;;;;11.80;6.47;;;4.10;62.00;;;;;;5000321;28;20182;-90
2023/04/08 03:00:48;;;;;;;16.85;7.00;;;4.10;62.10;;;;;;5016256;28;20045;-89
2023/04/08 03:03:14;;;;;;;8.25;5.35;;;4.20;62.20;;;;;;5007419;28;20434;-89
2023/04/08 03:05:40;;;;;;;14.52;6.97;;;4.20;62.80;;;;;;5007724;28;20484;-90
2023/04/08 03:08:05;;;;;;;13.45;6.57;;;4.20;62.20;;;;;;5012041;28;20034;-89
2023/04/08 03:10:31;;;;;;;11.27;6.35;;;4.20;62.40;;;;;;5016222;28;20037;-90
2023/04/08 03:12:58;;;;;;;18.80;6.82;;;4.20;62.30;;;;;;5014803;28;20020;-82
2023/04/08 03:15:26;;;;;;;11.77;6.28;;;4.30;62.40;;;;;;5021108;28;20033;-91
2023/04/08 03:17:52;;;;;;;13.00;6.13;;;4.30;62.30;;;;;;5035593;28;20029;-88
2023/04/08 03:20:19;;;;;;;21.83;8.65;;;4.30;62.30;;;;;;5023828;28;20073;-86
2023/04/08 03:22:45;;;;;;;15.02;10.15;;;4.40;63.00;;;;;;5024751;28;20018;-89
2023/04/08 03:25:11;;;;;;;22.05;8.95;;;4.40;63.70;;;;;;5032669;28;20026;-90
2023/04/08 03:27:37;;;;;;;24.73;7.70;;;4.40;64.10;;;;;;5011668;28;20032;-89
2023/04/08 03:30:03;;;;;;;22.27;8.52;;;4.50;63.20;;;;;;5006656;28;20060;-90
2023/04/08 03:32:29;;;;;;;17.13;7.82;;;4.50;63.00;;;;;;4987428;28;20033;-90
2023/04/08 03:34:56;;;;;;;15.07;7.20;;;4.50;62.80;;;;;;5013859;28;20030;-90
2023/04/08 03:37:22;;;;;;;16.33;8.15;;;4.50;63.00;;;;;;5008926;28;20274;-89
2023/04/08 03:39:48;;;;;;;13.52;7.32;;;4.50;63.00;;;;;;5026474;28;20071;-89
2023/04/08 03:42:14;;;;;;;27.25;15.30;;;4.50;63.10;;;;;;5044113;28;20025;-90
2023/04/08 03:44:40;;;;;;;19.13;8.45;;;4.60;63.90;;;;;;5020405;28;20030;-90
2023/04/08 03:47:05;;;;;;;19.48;8.77;;;4.60;63.40;;;;;;5004107;28;20050;-89
2023/04/08 03:49:31;;;;;;;14.25;7.75;;;4.70;63.20;;;;;;5033432;28;20026;-86
2023/04/08 03:51:59;;;;;;;15.98;7.47;;;4.70;63.00;;;;;;5023288;28;20026;-84
2023/04/08 03:54:25;;;;;;;;;;;4.80;62.70;;;;;;5023476;28;20040;-89
2023/04/08 03:56:50;;;;;;;16.42;7.25;;;4.90;62.50;;;;;;5007671;28;19952;-90
2023/04/08 03:59:16;;;;;;;16.70;7.72;;;4.90;62.10;;;;;;5013533;28;20086;-88
2023/04/08 04:01:42;;;;;;;11.38;6.72;;;4.80;62.50;;;;;;5043739;28;20467;-86
2023/04/08 04:04:08;;;;;;;15.00;8.07;;;4.90;62.30;;;;;;5043867;28;20133;-89
2023/04/08 04:06:34;;;;;;;23.33;9.77;;;4.90;62.60;;;;;;5033679;28;20029;-88
2023/04/08 04:09:00;;;;;;;13.00;6.30;;;4.90;63.00;;;;;;4993031;28;20054;-88
2023/04/08 04:11:26;;;;;;;12.20;6.10;;;5.00;62.60;;;;;;5046616;28;20079;-88
2023/04/08 04:13:53;;;;;;;16.40;6.78;;;5.00;61.90;;;;;;5014869;28;20006;-88
2023/04/08 04:16:19;;;;;;;13.07;7.20;;;5.10;61.80;;;;;;5009004;28;20045;-89
2023/04/08 04:18:44;;;;;;;15.68;5.90;;;5.10;61.90;;;;;;5024278;28;20061;-88
2023/04/08 04:21:11;;;;;;;9.55;5.45;;;5.10;61.60;;;;;;5015693;28;20017;-90
2023/04/08 04:23:38;;;;;;;11.90;7.38;;;5.10;61.70;;;;;;5008745;28;20022;-91
2023/04/08 04:26:14;;;;;;;12.18;6.15;;;5.20;62.70;;;;;;5016713;28;20113;-91
2023/04/08 04:28:40;;;;;;;16.88;6.88;;;5.60;61.80;;;;;;5000354;28;20031;-90
2023/04/08 04:31:07;;;;;;;10.93;6.85;;;6.00;60.40;;;;;;5030115;28;20053;-90
2023/04/08 04:33:33;;;;;;;10.95;5.88;;;6.50;59.00;;;;;;5036462;28;20040;-90
2023/04/08 04:35:59;;;;;;;13.98;7.50;;;7.00;58.20;;;;;;5018522;28;20395;-88
2023/04/08 04:38:25;;;;;;;12.27;7.85;;;7.40;57.00;;;;;;5039301;28;20445;-88
2023/04/08 04:40:52;;;;;;;14.90;7.32;;;7.70;55.70;;;;;;5006477;28;20113;-88
2023/04/08 04:43:18;;;;;;;11.15;6.68;;;8.00;55.20;;;;;;5021654;28;20100;-89
2023/04/08 04:45:44;;;;;;;18.58;7.68;;;8.30;54.70;;;;;;5022549;28;20025;-89
2023/04/08 04:48:09;;;;;;;17.98;7.38;;;8.90;54.00;;;;;;5020927;28;20172;-88
2023/04/08 04:50:36;;;;;;;12.10;7.70;;;9.50;53.10;;;;;;5014051;28;20029;-90
2023/04/08 04:53:04;;;;;;;16.73;8.73;;;10.10;51.70;;;;;;5033754;28;20029;-92
2023/04/08 04:55:31;;;;;;;17.58;8.48;;;10.40;50.30;;;;;;5026708;28;20025;-89
2023/04/08 04:57:57;;;;;;;14.52;8.20;;;10.20;49.80;;;;;;5030753;28;20049;-90
2023/04/08 05:00:26;;;;;;;15.07;8.10;;;9.70;49.80;;;;;;5018420;28;20060;-89
2023/04/08 05:02:52;;;;;;;15.27;8.75;;;8.90;51.00;;;;;;5011158;28;20037;-87
2023/04/08 05:05:18;;;;;;;20.17;8.13;;;8.20;52.60;;;;;;5026752;28;20026;-90
2023/04/08 05:07:44;;;;;;;22.35;11.75;;;7.70;53.90;;;;;;5035307;28;20028;-88
2023/04/08 05:10:10;;;;;;;20.90;9.10;;;7.30;55.70;;;;;;5017762;28;20026;-88
2023/04/08 05:12:37;;;;;;;21.67;10.43;;;7.00;56.20;;;;;;5040655;28;20026;-89
2023/04/08 05:15:03;;;;;;;24.63;9.83;;;6.80;56.80;;;;;;5024206;28;20046;-89
2023/04/08 05:17:29;;;;;;;19.42;9.82;;;7.10;57.70;;;;;;5051050;28;20101;-88
2023/04/08 05:19:55;;;;;;;25.52;9.07;;;8.00;56.70;;;;;;5019224;28;20034;-88
2023/04/08 05:22:21;;;;;;;19.83;9.40;;;8.70;54.20;;;;;;5019935;28;20032;-89
2023/04/08 05:24:47;;;;;;;16.15;8.30;;;9.00;52.80;;;;;;5027230;28;20060;-88
2023/04/08 05:27:13;;;;;;;21.33;10.15;;;8.50;52.80;;;;;;5005820;28;20069;-89
2023/04/08 05:29:38;;;;;;;22.02;9.13;;;8.00;53.70;;;;;;5020845;28;20025;-89
2023/04/08 05:32:05;;;;;;;20.08;8.18;;;7.60;54.70;;;;;;5021637;28;20033;-88
2023/04/08 05:34:32;;;;;;;21.60;8.10;;;7.20;55.50;;;;;;5000054;28;20030;-92
2023/04/08 05:36:58;;;;;;;20.52;8.20;;;7.10;56.70;;;;;;5017492;28;20361;-91
2023/04/08 05:39:26;;;;;;;21.00;9.10;;;6.90;57.10;;;;;;5032990;28;20537;-90
2023/04/08 05:41:52;;;;;;;23.10;10.07;;;6.80;57.10;;;;;;5038292;28;20057;-88
2023/04/08 05:44:18;;;;;;;27.50;10.70;;;6.70;57.60;;;;;;5018232;28;20019;-88
2023/04/08 05:46:44;;;;;;;25.52;9.57;;;6.60;58.10;;;;;;5032501;28;20037;-84
2023/04/08 05:49:12;;;;;;;18.80;7.80;;;6.60;58.50;;;;;;5037410;28;20050;-89
2023/04/08 05:51:39;;;;;;;20.15;9.88;;;6.60;58.40;;;;;;5018952;28;20030;-89
2023/04/08 05:54:05;;;;;;;26.95;8.60;;;6.60;58.50;;;;;;5031787;28;20044;-89
2023/04/08 05:56:31;;;;;;;25.95;9.93;;;6.70;58.60;;;;;;5022492;28;20030;-89
2023/04/08 05:58:57;;;;;;;23.95;8.85;;;6.90;58.60;;;;;;4986141;28;20033;-88
2023/04/08 06:01:24;;;;;;;17.35;9.00;;;7.10;58.50;;;;;;4996738;28;20038;-87
2023/04/08 06:03:54;;;;;;;18.67;8.15;;;8.60;58.20;;;;;;4979873;28;20066;-89
2023/04/08 06:06:21;;;;;;;21.02;8.95;;;10.80;54.70;;;;;;4982872;28;20560;-89
2023/04/08 06:08:47;;;;;;;22.77;9.50;;;13.20;50.40;;;;;;4981808;28;20031;-89
2023/04/08 06:11:13;;;;;;;24.30;10.30;;;14.70;45.10;;;;;;5000564;28;20070;-90
2023/04/08 06:13:41;;;;;;;23.65;10.55;;;15.40;43.90;;;;;;4982411;28;20037;-88
2023/04/08 06:16:16;;;;;;;35.92;12.95;;;16.10;43.30;;;;;;5014629;28;20021;-87
2023/04/08 06:18:42;;;;;;;19.73;9.55;;;;;;;;;;5010237;28;20011;-89
2023/04/08 06:21:09;;;;;;;22.35;9.68;;;17.50;40.10;;;;;;5001378;28;20038;-87
2023/04/08 06:23:35;;;;;;;27.52;9.50;;;;;;;;;;4999980;28;20041;-88
2023/04/08 06:26:01;;;;;;;25.75;10.95;;;;;;;;;;5013341;28;20026;-88
2023/04/08 06:28:31;;;;;;;30.77;10.63;;;19.60;55.30;;;;;;4990671;28;20055;-86
2023/04/08 06:30:58;;;;;;;26.48;9.95;;;19.60;37.00;;;;;;4997454;28;20808;-88
2023/04/08 06:33:24;;;;;;;31.00;10.63;;;;;;;;;;4995108;28;20063;-86
2023/04/08 06:35:50;;;;;;;19.77;8.57;;;20.90;62.80;;;;;;4985907;28;20546;-88
2023/04/08 06:38:17;;;;;;;24.30;10.07;;;;;;;;;;5005239;28;20030;-88
2023/04/08 06:40:42;;;;;;;21.17;9.88;;;20.30;34.40;;;;;;4986445;28;20118;-89
2023/04/08 06:43:08;;;;;;;19.05;9.80;;;20.20;34.40;;;;;;4999840;28;20050;-88
2023/04/08 06:45:34;;;;;;;26.00;9.88;;;19.70;34.90;;;;;;5001091;28;20069;-89
2023/04/08 06:48:01;;;;;;;22.45;9.90;;;19.60;35.10;;;;;;4996298;28;20102;-91
2023/04/08 06:50:26;;;;;;;28.98;10.20;;;19.60;35.00;;;;;;5001975;28;20058;-88
2023/04/08 06:52:53;;;;;;;23.95;10.13;;;20.00;35.40;;;;;;4991997;28;20043;-86
2023/04/08 06:55:20;;;;;;;20.55;9.77;;;20.90;34.70;;;;;;4997898;28;20014;-87
2023/04/08 06:57:46;;;;;;;27.30;11.27;;;20.70;34.30;;;;;;4979871;28;20114;-90
2023/04/08 07:00:12;;;;;;;31.83;11.27;;;20.10;34.50;;;;;;5008112;28;20084;-89
2023/04/08 07:02:38;;;;;;;24.00;11.27;;;19.80;35.00;;;;;;5016329;28;20052;-87
2023/04/08 07:05:04;;;;;;;22.25;10.30;;;20.20;34.60;;;;;;5015104;28;20019;-87
2023/04/08 07:07:31;;;;;;;25.75;11.98;;;20.40;34.40;;;;;;4992718;28;20032;-89
2023/04/08 07:09:56;;;;;;;33.27;12.00;;;21.10;33.90;;;;;;5019079;28;20085;-87
2023/04/08 07:12:22;;;;;;;30.45;11.85;;;21.60;33.80;;;;;;5032972;28;20793;-88
2023/04/08 07:14:48;;;;;;;33.28;12.50;;;21.80;33.20;;;;;;5008319;28;20491;-88
2023/04/08 07:17:14;;;;;;;27.83;10.90;;;21.30;32.60;;;;;;5021714;28;20558;-88
2023/04/08 07:19:42;;;;;;;36.53;12.27;;;20.50;33.60;;;;;;5039755;28;20069;-88
2023/04/08 07:22:10;;;;;;;27.38;11.30;;;20.80;34.10;;;;;;5020816;28;20022;-88
2023/04/08 07:24:37;;;;;;;39.40;12.13;;;21.60;33.40;;;;;;5025703;28;20033;-89
2023/04/08 07:27:03;;;;;;;22.13;10.15;;;21.10;33.00;;;;;;5017705;28;20086;-88
2023/04/08 07:29:29;;;;;;;29.77;11.57;;;20.60;33.90;;;;;;4999004;28;20030;-86
2023/04/08 07:31:55;;;;;;;32.88;11.25;;;20.50;34.10;;;;;;5005741;28;20034;-87
2023/04/08 07:34:22;;;;;;;31.90;11.23;;;20.70;34.20;;;;;;5004942;28;20060;-87
2023/04/08 07:36:48;;;;;;;22.17;11.65;;;21.10;34.10;;;;;;5001667;28;20030;-88
2023/04/08 07:39:14;;;;;;;23.80;11.25;;;21.50;33.50;;;;;;5003201;28;20033;-88
2023/04/08 07:41:40;;;;;;;25.05;10.30;;;21.50;33.40;;;;;;5009864;28;20391;-87
2023/04/08 07:44:06;;;;;;;22.60;9.90;;;21.60;33.10;;;;;;5011982;28;20029;-88
2023/04/08 07:46:37;;;;;;;18.08;8.95;;;22.40;32.90;;;;;;5020397;28;20076;-88
2023/04/08 07:49:03;;;;;;;18.95;8.98;;;22.60;32.20;;;;;;5000421;28;20018;-84
2023/04/08 07:51:29;;;;;;;20.05;9.63;;;;;;;;;;4999424;28;20491;-83
2023/04/08 07:53:55;;;;;;;19.13;11.15;;;23.00;31.30;;;;;;5005941;28;21718;-83
2023/04/08 07:56:21;;;;;;;26.38;9.15;;;23.30;31.10;;;;;;5016393;28;20464;-85
2023/04/08 07:58:49;;;;;;;22.63;9.80;;;22.80;31.60;;;;;;5000890;28;20036;-81
2023/04/08 08:01:17;;;;;;;17.20;7.63;;;22.80;31.90;;;;;;5004794;28;20045;-82
2023/04/08 08:03:43;;;;;;;19.35;7.80;;;22.70;31.80;;;;;;5017977;28;20026;-81
2023/04/08 08:06:11;;;;;;;24.35;8.38;;;22.80;31.20;;;;;;5018598;28;20026;-82
2023/04/08 08:08:37;;;;;;;31.73;9.60;;;22.70;31.60;;;;;;5018935;28;20111;-81
2023/04/08 08:11:03;;;;;;;33.45;9.82;;;23.50;31.50;;;;;;5014671;28;20034;-82
2023/04/08 08:13:29;;;;;;;11.93;7.93;;;24.40;31.00;;;;;;5022383;28;20078;-83
2023/04/08 08:15:55;;;;;;;13.40;5.95;;;24.60;29.90;;;;;;5019762;28;20122;-84
2023/04/08 08:18:21;;;;;;;24.58;7.65;;;23.60;30.00;;;;;;5034183;28;20006;-84
2023/04/08 08:20:47;;;;;;;16.95;7.20;;;23.30;30.90;;;;;;5003655;28;20029;-79
2023/04/08 08:23:13;;;;;;;17.30;7.05;;;24.00;30.30;;;;;;5007602;28;20094;-85
2023/04/08 08:25:39;;;;;;;20.85;8.90;;;24.50;30.00;;;;;;5020060;28;20026;-89
2023/04/08 08:28:06;;;;;;;14.63;7.78;;;24.20;29.90;;;;;;5019909;28;20026;-86
2023/04/08 08:30:31;;;;;;;12.70;6.78;;;23.60;30.00;;;;;;5026699;28;20054;-89
2023/04/08 08:33:00;;;;;;;11.95;7.07;;;23.30;30.40;;;;;;5004611;28;20010;-88
2023/04/08 08:35:28;;;;;;;15.07;8.20;;;22.90;30.70;;;;;;5024705;28;20037;-91
2023/04/08 08:37:54;;;;;;;11.75;7.00;;;22.60;31.00;;;;;;5020171;28;20033;-86
2023/04/08 08:40:21;;;;;;;14.77;8.07;;;22.10;31.20;;;;;;5023600;28;20026;-87
2023/04/08 08:42:51;;;;;;;13.57;8.52;;;21.80;31.90;;;;;;5024225;28;20044;-90
2023/04/08 08:45:19;;;;;;;8.13;5.50;;;21.20;32.10;;;;;;5024859;28;20033;-89
2023/04/08 08:47:45;;;;;;;14.80;7.65;;;21.30;32.70;;;;;;5009936;28;20025;-86
2023/04/08 08:50:11;;;;;;;13.45;6.75;;;21.70;32.20;;;;;;5025512;28;20050;-86
2023/04/08 08:52:37;;;;;;;15.18;7.00;;;22.60;31.50;;;;;;5013223;28;20419;-86
2023/04/08 08:55:03;;;;;;;16.75;6.78;;;22.50;31.00;;;;;;5007184;28;20028;-88
2023/04/08 08:57:29;;;;;;;15.85;7.72;;;22.40;31.70;;;;;;5016918;28;20073;-86
2023/04/08 08:59:55;;;;;;;18.63;7.20;;;23.50;31.20;;;;;;5021235;28;20045;-87
2023/04/08 09:02:28;;;;;;;23.15;8.75;;;24.50;30.20;;;;;;5029559;28;20081;-86
2023/04/08 09:05:02;;;;;;;17.15;11.63;;;24.50;29.90;;;;;;5038625;28;20124;-87
2023/04/08 09:07:30;;;;;;;9.93;6.32;;;25.20;29.50;;;;;;5018270;28;20487;-85
2023/04/08 09:09:57;;;;;;;11.30;7.65;;;25.30;29.50;;;;;;5017790;28;20044;-87
2023/04/08 09:12:26;;;;;;;22.27;8.73;;;25.70;29.30;;;;;;5026268;28;20037;-88
2023/04/08 09:15:02;;;;;;;14.70;8.25;;;;;;;;;;5024334;28;20034;-88
2023/04/08 09:17:35;;;;;;;16.17;6.88;;;26.20;29.20;;;;;;5011768;28;20022;-88
2023/04/08 09:20:11;;;;;;;17.65;8.25;;;26.40;28.60;;;;;;4993717;28;20030;-90
2023/04/08 09:23:00;;;;;;;17.67;7.28;;;25.60;29.10;;;;;;5001657;28;20026;-89
2023/04/08 09:25:33;;;;;;;20.05;9.10;;;26.90;29.20;;;;;;5004600;28;20490;-91
2023/04/08 09:28:01;;;;;;;16.50;7.85;;;27.10;29.30;;;;;;5007159;28;20500;-88
2023/04/08 09:30:27;;;;;;;13.93;8.02;;;28.10;28.40;;;;;;5015527;28;20496;-88
2023/04/08 09:32:57;;;;;;;14.35;7.30;;;28.50;27.50;;;;;;5020542;28;20052;-89
2023/04/08 09:35:24;;;;;;;10.15;6.68;;;27.10;28.10;;;;;;5032653;28;20010;-88
2023/04/08 09:37:50;;;;;;;15.55;7.65;;;26.70;28.10;;;;;;4984580;28;20030;-88
2023/04/08 09:40:17;;;;;;;17.75;8.50;;;27.20;28.20;;;;;;4998503;28;20025;-87
2023/04/08 09:42:52;;;;;;;17.17;6.80;;;27.80;28.30;;;;;;4986824;28;20506;-90
2023/04/08 09:45:19;;;;;;;15.75;6.60;;;28.60;27.90;;;;;;4991108;28;20018;-89
2023/04/08 09:48:11;;;;;;;15.13;5.75;;;29.00;27.50;;;;;;4996506;28;20061;-87
2023/04/08 09:50:42;;;;;;;12.02;5.88;;;29.50;27.50;;;;;;5002131;28;20036;-88
2023/04/08 09:53:18;;;;;;;8.98;5.70;;;29.70;26.90;;;;;;5005791;28;20045;-89
2023/04/08 09:55:50;;;;;;;10.88;5.50;;;29.00;26.60;;;;;;5012265;28;20030;-88
2023/04/08 09:58:26;;;;;;;13.35;5.97;;;28.00;27.00;;;;;;5025917;28;20030;-91
2023/04/08 10:00:54;;;;;;;15.30;5.75;;;28.50;27.00;;;;;;5012739;28;20058;-89
2023/04/08 10:03:32;;;;;;;14.63;6.13;;;28.70;26.90;;;;;;5006503;28;20026;-87
2023/04/08 10:06:01;;;;;;;9.93;5.72;;;28.30;26.70;;;;;;5012312;28;20056;-89
2023/04/08 10:08:27;;;;;;;14.90;6.30;;;27.50;27.20;;;;;;5001304;28;20433;-88
2023/04/08 10:10:55;;;;;;;14.82;6.97;;;27.50;27.40;;;;;;5009937;28;20048;-81
2023/04/08 10:13:21;;;;;;;11.48;6.00;;;27.90;27.40;;;;;;5010953;28;20082;-86
2023/04/08 10:15:48;;;;;;;13.15;7.25;;;28.10;26.90;;;;;;5000293;28;20077;-86
2023/04/08 10:18:17;;;;;;;12.82;6.20;;;28.00;27.10;;;;;;5001528;28;20076;-84
2023/04/08 10:20:44;;;;;;;18.95;6.53;;;27.90;27.20;;;;;;5015387;28;20038;-81
2023/04/08 10:23:13;;;;;;;;;;;28.40;27.00;;;;;;4986601;28;20021;-79
2023/04/08 10:25:49;;;;;;;16.83;7.07;;;28.00;27.30;;;;;;4994525;28;19906;-81
2023/04/08 10:28:17;;;;;;;16.08;7.22;;;25.80;27.00;;;;;;4996390;28;20041;-81
2023/04/08 10:30:48;;;;;;;13.60;7.05;;;24.50;28.20;;;;;;5002287;28;20058;-80
2023/04/08 10:33:33;;;;;;;16.35;7.68;;;22.70;29.50;;;;;;5008561;28;20032;-82
2023/04/08 10:36:10;;;;;;;15.50;8.38;;;21.10;31.20;;;;;;5005128;28;20027;-79
2023/04/08 10:38:37;;;;;;;19.17;8.63;;;19.70;33.20;;;;;;4998747;28;20074;-82
2023/04/08 10:41:03;;;;;;;15.70;8.07;;;18.50;34.60;;;;;;4990017;28;20042;-80
2023/04/08 10:43:33;;;;;;;16.30;8.20;;;17.90;35.90;;;;;;4985640;28;20109;-80
2023/04/08 10:45:59;;;;;;;13.00;8.15;;;17.60;36.30;;;;;;4980874;28;20113;-79
2023/04/08 10:48:25;;;;;;;14.75;8.00;;;17.30;36.70;;;;;;5008568;28;20108;-80
2023/04/08 10:51:02;;;;;;;16.58;9.40;;;17.00;37.40;;;;;;5001463;28;20033;-82
2023/04/08 10:53:33;;;;;;;;;;;16.50;38.10;;;;;;5008264;28;20014;-82
2023/04/08 10:56:08;;;;;;;10.10;7.30;;;16.10;38.50;;;;;;5001968;28;19913;-81
2023/04/08 10:58:46;;;;;;;9.27;7.05;;;15.40;39.70;;;;;;5006905;28;20534;-81
2023/04/08 11:01:12;;;;;;;12.48;7.00;;;14.90;40.60;;;;;;4987185;28;20056;-83
2023/04/08 11:03:38;;;;;;;14.30;7.13;;;14.90;40.80;;;;;;4979920;28;20046;-82
2023/04/08 11:06:04;;;;;;;13.18;6.63;;;14.80;41.20;;;;;;4985728;28;20022;-82
2023/04/08 11:08:32;;;;;;;15.68;6.85;;;14.80;41.20;;;;;;4974938;28;20026;-81
2023/04/08 11:11:00;;;;;;;11.38;7.55;;;14.50;41.70;;;;;;4983187;28;20039;-81
2023/04/08 11:13:27;;;;;;;9.23;6.80;;;14.60;41.90;;;;;;4963222;28;20484;-81
2023/04/08 11:15:57;;;;;;;9.88;6.15;;;14.70;41.80;;;;;;4982955;28;20433;-81
2023/04/08 11:18:25;;;;;;;12.07;7.38;;;14.80;41.30;;;;;;4983530;28;20045;-82
2023/04/08 11:20:52;;;;;;;11.32;5.55;;;15.00;40.80;;;;;;4967814;28;20030;-81
2023/04/08 11:23:17;;;;;;;11.93;6.38;;;15.10;40.50;;;;;;4980283;28;20066;-80
2023/04/08 11:25:45;;;;;;;14.63;6.70;;;15.00;40.60;;;;;;4987193;28;20030;-81
2023/04/08 11:28:13;;;;;;;13.70;5.70;;;15.00;40.90;;;;;;4963577;28;20105;-81
2023/04/08 11:30:40;;;;;;;18.13;7.35;;;15.00;40.90;;;;;;4992842;28;20109;-81
2023/04/08 11:33:09;;;;;;;9.95;6.50;;;14.60;41.10;;;;;;4988068;28;20030;-81
2023/04/08 11:35:42;;;;;;;10.25;6.13;;;14.30;41.70;;;;;;4994278;28;20104;-85
2023/04/08 11:38:09;;;;;;;12.30;6.90;;;14.10;42.60;;;;;;4985875;28;20473;-81
2023/04/08 11:40:35;;;;;;;13.90;7.20;;;14.00;42.90;;;;;;4984756;28;20027;-85
2023/04/08 11:43:09;;;;;;;13.35;7.68;;;14.10;42.80;;;;;;4988749;28;20535;-85
2023/04/08 11:45:39;;;;;;;11.77;6.43;;;14.20;42.80;;;;;;4991503;28;20027;-85
2023/04/08 11:48:12;;;;;;;15.70;7.55;;;14.10;42.60;;;;;;4964704;28;20038;-84
2023/04/08 11:50:40;;;;;;;12.70;7.38;;;14.10;43.00;;;;;;4998369;28;20507;-87
2023/04/08 11:53:24;;;;;;;12.82;6.18;;;14.10;42.90;;;;;;5008353;28;20076;-83
2023/04/08 11:55:50;;;;;;;10.55;6.50;;;13.90;42.70;;;;;;4991326;28;20023;-85
2023/04/08 11:58:17;;;;;;;14.35;6.68;;;13.90;43.10;;;;;;5002558;28;20050;-92
2023/04/08 12:00:44;;;;;;;14.63;6.30;;;14.20;43.20;;;;;;5003245;28;20026;-91
2023/04/08 12:03:11;;;;;;;9.45;5.70;;;14.10;42.90;;;;;;5012545;28;20018;-91
2023/04/08 12:05:42;;;;;;;16.13;6.47;;;13.90;43.20;;;;;;5008190;28;20030;-89
2023/04/08 12:08:11;;;;;;;12.23;7.75;;;13.80;43.60;;;;;;4996671;28;20133;-89
2023/04/08 12:10:42;;;;;;;16.35;6.63;;;13.90;43.70;;;;;;5035060;28;20042;-90
2023/04/08 12:13:15;;;;;;;14.88;7.40;;;14.00;43.40;;;;;;5023049;28;20117;-93
2023/04/08 12:15:43;;;;;;;11.35;7.30;;;13.90;43.40;;;;;;5026476;28;20171;-91
2023/04/08 12:18:09;;;;;;;;;;;14.00;43.80;;;;;;4981070;28;20112;-90
2023/04/08 12:20:35;;;;;;;17.33;7.43;;;14.10;43.60;;;;;;5009581;28;19910;-91
2023/04/08 12:23:01;;;;;;;13.18;6.97;;;14.20;44.00;;;;;;4977095;28;20070;-80
2023/04/08 12:25:27;;;;;;;12.98;8.00;;;14.20;44.00;;;;;;4974949;28;20110;-82
2023/04/08 12:27:53;;;;;;;14.60;7.50;;;14.30;43.70;;;;;;4975151;28;20043;-82
2023/04/08 12:30:20;;;;;;;18.20;8.90;;;14.50;43.80;;;;;;4960614;28;20042;-81
2023/04/08 12:32:46;;;;;;;14.10;10.02;;;14.60;44.20;;;;;;4977456;28;20043;-81
2023/04/08 12:35:12;;;;;;;12.00;9.05;;;14.80;44.00;;;;;;4978743;28;20412;-83
2023/04/08 12:37:38;;;;;;;19.10;10.27;;;14.90;43.80;;;;;;4974618;28;20035;-82
2023/04/08 12:40:04;;;;;;;25.27;9.95;;;15.00;43.70;;;;;;4973951;28;20082;-81
2023/04/08 12:42:30;;;;;;;11.60;7.75;;;15.20;43.40;;;;;;4957660;28;20031;-81
2023/04/08 12:44:56;;;;;;;14.07;7.18;;;15.40;43.20;;;;;;4974794;28;20041;-83
2023/04/08 12:47:22;;;;;;;12.85;8.60;;;15.20;43.00;;;;;;4977377;28;20054;-90